createdAt,value
2023-05-11T00:00:24.562Z,52.21
2023-05-11T00:01:24.571Z,51.88
2023-05-11T00:02:24.647Z,51.56
2023-05-11T00:03:24.675Z,50.92
2023-05-11T00:04:24.553Z,51.24
2023-05-11T00:05:24.536Z,51.56
2023-05-11T00:06:24.516Z,51.56
2023-05-11T00:07:24.506Z,52.05
2023-05-11T00:08:24.509Z,52.69
2023-05-11T00:09:24.486Z,51.56
2023-05-11T00:10:24.495Z,52.85
2023-05-11T00:11:24.496Z,51.56
2023-05-11T00:12:24.492Z,52.21
2023-05-11T00:13:24.464Z,53.82
2023-05-11T00:14:24.453Z,51.56
2023-05-11T00:15:24.533Z,51.24
2023-05-11T00:16:24.489Z,52.69
2023-05-11T00:17:24.482Z,51.40
2023-05-11T00:18:24.524Z,51.56
2023-05-11T00:19:24.478Z,51.72
2023-05-11T00:20:24.435Z,51.08
2023-05-11T00:21:24.436Z,51.08
2023-05-11T00:22:24.392Z,50.76
2023-05-11T00:23:24.396Z,51.24
2023-05-11T00:24:24.384Z,53.66
2023-05-11T00:25:24.440Z,53.33
2023-05-11T00:26:24.389Z,51.56
2023-05-11T00:27:24.453Z,53.01
2023-05-11T00:28:24.401Z,52.21
2023-05-11T00:29:24.376Z,52.37
2023-05-11T00:30:24.447Z,51.88
2023-05-11T00:31:24.413Z,54.79
2023-05-11T00:32:25.282Z,52.21
2023-05-11T00:33:24.367Z,53.82
2023-05-11T00:34:24.319Z,53.66
2023-05-11T00:35:24.312Z,55.91
2023-05-11T00:36:24.317Z,51.24
2023-05-11T00:37:25.993Z,51.56
2023-05-11T00:38:24.305Z,51.24
2023-05-11T00:39:24.287Z,51.56
2023-05-11T00:40:24.298Z,52.37
2023-05-11T00:41:24.292Z,51.72
2023-05-11T00:42:25.267Z,51.88
2023-05-11T00:43:24.358Z,51.72
2023-05-11T00:44:24.255Z,51.08
2023-05-11T00:45:24.249Z,51.72
2023-05-11T00:46:24.271Z,55.91
2023-05-11T00:47:24.693Z,51.72
2023-05-11T00:48:24.352Z,52.21
2023-05-11T00:49:24.232Z,53.17
2023-05-11T00:50:24.258Z,51.40
2023-05-11T00:51:24.218Z,51.88
2023-05-11T00:52:24.222Z,51.56
2023-05-11T00:53:24.212Z,52.21
2023-05-11T00:54:24.205Z,51.72
2023-05-11T00:55:24.297Z,52.21
2023-05-11T00:56:24.216Z,51.72
2023-05-11T00:57:24.180Z,51.56
2023-05-11T00:58:24.212Z,51.72
2023-05-11T00:59:24.235Z,52.85
2023-05-11T01:00:24.225Z,54.62
2023-05-11T01:01:24.271Z,50.76
2023-05-11T01:02:24.179Z,51.72
2023-05-11T01:03:24.166Z,52.21
2023-05-11T01:04:24.173Z,53.98
2023-05-11T01:05:24.136Z,52.05
2023-05-11T01:06:24.783Z,51.72
2023-05-11T01:07:24.785Z,51.08
2023-05-11T01:08:24.766Z,54.95
2023-05-11T01:09:24.112Z,51.88
2023-05-11T01:10:24.189Z,51.40
2023-05-11T01:11:24.119Z,51.40
2023-05-11T01:12:24.111Z,50.92
2023-05-11T01:13:24.104Z,51.40
2023-05-11T01:14:24.101Z,51.56
2023-05-11T01:15:24.082Z,52.21
2023-05-11T01:16:24.122Z,53.33
2023-05-11T01:17:24.156Z,51.72
2023-05-11T01:18:24.072Z,52.37
2023-05-11T01:19:24.108Z,52.05
2023-05-11T01:20:24.033Z,52.53
2023-05-11T01:21:24.031Z,53.98
2023-05-11T01:22:24.049Z,53.98
2023-05-11T01:23:24.044Z,53.66
2023-05-11T01:24:24.036Z,52.69
2023-05-11T01:25:24.032Z,53.17
2023-05-11T01:26:24.226Z,51.88
2023-05-11T01:27:24.022Z,53.33
2023-05-11T01:28:23.991Z,52.69
2023-05-11T01:29:24.012Z,51.56
2023-05-11T01:30:24.027Z,51.56
2023-05-11T01:31:58.508Z,51.88
2023-05-11T01:32:58.482Z,53.01
2023-05-11T01:33:57.394Z,52.37
2023-05-11T01:34:57.455Z,52.37
2023-05-11T01:35:23.958Z,55.59
2023-05-11T01:36:57.425Z,53.33
2023-05-11T01:37:57.377Z,60.75
2023-05-11T01:38:57.448Z,52.05
2023-05-11T01:39:57.337Z,53.66
2023-05-11T01:40:23.944Z,55.11
2023-05-11T01:44:25.296Z,52.37
2023-05-11T01:45:25.265Z,53.82
2023-05-11T01:46:25.304Z,52.85
2023-05-11T01:47:25.307Z,52.05
2023-05-11T01:48:25.248Z,51.56
2023-05-11T01:49:25.257Z,51.56
2023-05-11T01:50:25.260Z,51.88
2023-05-11T01:51:25.239Z,54.46
2023-05-11T01:52:25.278Z,52.85
2023-05-11T01:53:25.207Z,52.37
2023-05-11T01:54:25.284Z,51.88
2023-05-11T01:55:25.245Z,51.56
2023-05-11T01:56:25.200Z,53.50
2023-05-11T01:57:25.207Z,52.53
2023-05-11T01:58:25.170Z,52.21
2023-05-11T01:59:25.234Z,51.88
2023-05-11T02:00:25.158Z,52.05
2023-05-11T02:01:25.285Z,53.33
2023-05-11T02:02:25.255Z,53.01
2023-05-11T02:03:25.303Z,52.05
2023-05-11T02:04:25.148Z,52.21
2023-05-11T02:05:25.241Z,51.88
2023-05-11T02:06:25.137Z,51.72
2023-05-11T02:07:25.131Z,52.69
2023-05-11T02:08:25.149Z,51.88
2023-05-11T02:09:25.116Z,51.72
2023-05-11T02:10:25.153Z,51.88
2023-05-11T02:11:25.106Z,51.56
2023-05-11T02:12:25.148Z,54.30
2023-05-11T02:13:25.139Z,52.37
2023-05-11T02:14:25.093Z,53.82
2023-05-11T02:15:25.121Z,51.88
2023-05-11T02:16:25.224Z,51.24
2023-05-11T02:17:25.100Z,51.72
2023-05-11T02:18:25.135Z,52.37
2023-05-11T02:19:25.085Z,52.37
2023-05-11T02:20:25.102Z,51.24
2023-05-11T02:21:25.096Z,51.72
2023-05-11T02:22:25.056Z,53.33
2023-05-11T02:23:25.066Z,51.88
2023-05-11T02:24:25.038Z,52.05
2023-05-11T02:25:25.031Z,51.56
2023-05-11T02:26:24.993Z,53.33
2023-05-11T02:27:25.004Z,51.72
2023-05-11T02:28:25.029Z,51.56
2023-05-11T02:29:24.999Z,52.53
2023-05-11T02:30:25.080Z,53.01
2023-05-11T02:31:25.038Z,52.21
2023-05-11T02:32:24.972Z,52.05
2023-05-11T02:33:25.045Z,52.05
2023-05-11T02:34:25.000Z,52.05
2023-05-11T02:35:24.954Z,52.85
2023-05-11T02:36:24.964Z,55.91
2023-05-11T02:37:24.934Z,53.82
2023-05-11T02:38:24.952Z,52.69
2023-05-11T02:39:24.989Z,53.33
2023-05-11T02:40:24.934Z,59.62
2023-05-11T02:41:24.918Z,54.62
2023-05-11T02:42:24.938Z,54.30
2023-05-11T02:43:24.906Z,53.50
2023-05-11T02:44:24.953Z,53.01
2023-05-11T02:45:24.894Z,54.46
2023-05-11T02:46:24.965Z,52.53
2023-05-11T02:47:24.927Z,53.17
2023-05-11T02:48:24.908Z,54.14
2023-05-11T02:49:24.891Z,54.46
2023-05-11T02:50:24.831Z,54.62
2023-05-11T02:51:24.862Z,54.95
2023-05-11T02:52:25.823Z,59.30
2023-05-11T02:53:24.843Z,54.95
2023-05-11T02:54:24.862Z,52.69
2023-05-11T02:55:24.834Z,52.85
2023-05-11T02:56:24.872Z,53.82
2023-05-11T02:57:24.831Z,54.14
2023-05-11T02:58:24.820Z,54.46
2023-05-11T02:59:24.817Z,53.98
2023-05-11T03:00:24.831Z,54.95
2023-05-11T03:01:25.293Z,52.85
2023-05-11T03:02:24.917Z,54.79
2023-05-11T03:03:24.905Z,54.30
2023-05-11T03:04:24.792Z,54.46
2023-05-11T03:05:24.813Z,54.46
2023-05-11T03:06:24.756Z,55.91
2023-05-11T03:07:24.739Z,58.33
2023-05-11T03:08:24.745Z,56.07
2023-05-11T03:09:24.804Z,55.91
2023-05-11T03:10:24.747Z,57.85
2023-05-11T03:11:24.721Z,54.95
2023-05-11T03:12:24.727Z,53.82
2023-05-11T03:13:24.731Z,55.43
2023-05-11T03:14:25.719Z,56.07
2023-05-11T03:15:24.704Z,57.52
2023-05-11T03:16:24.719Z,59.30
2023-05-11T03:17:24.778Z,56.56
2023-05-11T03:18:24.701Z,56.40
2023-05-11T03:19:24.688Z,53.33
2023-05-11T03:20:24.705Z,54.14
2023-05-11T03:21:24.682Z,54.62
2023-05-11T03:22:24.655Z,53.66
2023-05-11T03:23:24.704Z,57.69
2023-05-11T03:24:25.666Z,58.65
2023-05-11T03:25:24.661Z,53.82
2023-05-11T03:26:24.674Z,53.50
2023-05-11T03:27:24.648Z,60.10
2023-05-11T03:28:24.644Z,58.81
2023-05-11T03:29:24.657Z,56.40
2023-05-11T03:30:24.690Z,59.46
2023-05-11T03:31:24.651Z,60.91
2023-05-11T03:32:24.731Z,55.27
2023-05-11T03:33:24.671Z,58.65
2023-05-11T03:34:24.603Z,61.55
2023-05-11T03:35:24.594Z,56.24
2023-05-11T03:36:24.626Z,58.33
2023-05-11T03:37:24.587Z,58.97
2023-05-11T03:38:24.583Z,54.14
2023-05-11T03:39:24.604Z,65.58
2023-05-11T03:40:24.637Z,60.10
2023-05-11T03:41:24.542Z,58.49
2023-05-11T03:42:24.617Z,63.00
2023-05-11T03:43:24.513Z,60.42
2023-05-11T03:44:24.545Z,57.36
2023-05-11T03:45:24.525Z,66.06
2023-05-11T03:46:24.637Z,65.58
2023-05-11T03:47:24.530Z,59.94
2023-05-11T03:48:24.479Z,61.71
2023-05-11T03:49:24.512Z,61.71
2023-05-11T03:50:24.473Z,60.42
2023-05-11T03:51:25.535Z,64.13
2023-05-11T03:52:24.513Z,64.29
2023-05-11T03:53:24.486Z,57.20
2023-05-11T03:54:24.480Z,59.46
2023-05-11T03:55:24.528Z,55.59
2023-05-11T03:56:24.454Z,53.33
2023-05-11T03:57:24.434Z,54.79
2023-05-11T03:58:24.435Z,61.87
2023-05-11T03:59:24.457Z,57.36
2023-05-11T04:00:24.460Z,58.01
2023-05-11T04:01:24.404Z,56.56
2023-05-11T04:02:24.648Z,59.78
2023-05-11T04:03:24.486Z,65.10
2023-05-11T04:04:24.503Z,59.14
2023-05-11T04:05:24.396Z,58.01
2023-05-11T04:06:24.414Z,55.27
2023-05-11T04:07:24.397Z,56.24
2023-05-11T04:08:24.445Z,64.94
2023-05-11T04:09:24.504Z,61.07
2023-05-11T04:10:24.364Z,62.84
2023-05-11T04:11:24.329Z,65.58
2023-05-11T04:12:24.344Z,66.23
2023-05-11T04:13:24.424Z,56.40
2023-05-11T04:14:24.360Z,59.14
2023-05-11T04:15:24.328Z,65.90
2023-05-11T04:16:24.356Z,67.19
2023-05-11T04:17:25.326Z,67.68
2023-05-11T04:18:24.339Z,54.62
2023-05-11T04:19:24.299Z,58.01
2023-05-11T04:20:24.289Z,59.46
2023-05-11T04:21:24.291Z,66.06
2023-05-11T04:22:24.291Z,66.23
2023-05-11T04:23:25.304Z,64.29
2023-05-11T04:24:24.284Z,61.55
2023-05-11T04:25:24.309Z,70.74
2023-05-11T04:26:24.284Z,68.16
2023-05-11T04:27:24.284Z,66.23
2023-05-11T04:28:24.237Z,61.23
2023-05-11T04:29:24.271Z,68.64
2023-05-11T04:30:24.271Z,59.30
2023-05-11T04:31:24.285Z,55.59
2023-05-11T04:32:24.250Z,55.91
2023-05-11T04:33:24.252Z,68.00
2023-05-11T04:34:24.217Z,57.36
2023-05-11T04:35:24.214Z,65.58
2023-05-11T04:36:24.220Z,61.55
2023-05-11T04:37:24.192Z,61.87
2023-05-11T04:38:24.187Z,68.00
2023-05-11T04:39:25.174Z,69.61
2023-05-11T04:40:24.219Z,66.71
2023-05-11T04:41:25.044Z,64.61
2023-05-11T04:42:24.213Z,62.20
2023-05-11T04:43:24.138Z,61.71
2023-05-11T04:44:24.147Z,65.42
2023-05-11T04:45:24.319Z,66.55
2023-05-11T04:46:24.226Z,56.88
2023-05-11T04:47:24.196Z,60.75
2023-05-11T04:48:24.154Z,62.04
2023-05-11T04:49:24.097Z,64.94
2023-05-11T04:50:24.094Z,68.64
2023-05-11T04:51:24.102Z,66.39
2023-05-11T04:52:24.867Z,62.20
2023-05-11T04:53:24.109Z,61.87
2023-05-11T04:54:24.082Z,71.38
2023-05-11T04:55:24.173Z,62.36
2023-05-11T04:56:24.130Z,61.39
2023-05-11T04:57:24.103Z,58.17
2023-05-11T04:58:24.128Z,63.97
2023-05-11T04:59:24.103Z,60.91
2023-05-11T05:00:24.029Z,71.06
2023-05-11T05:01:24.157Z,67.35
2023-05-11T05:02:24.097Z,68.96
2023-05-11T05:03:24.288Z,68.00
2023-05-11T05:04:23.998Z,65.74
2023-05-11T05:05:24.058Z,65.90
2023-05-11T05:06:24.024Z,59.78
2023-05-11T05:07:24.017Z,61.55
2023-05-11T05:08:23.977Z,63.33
2023-05-11T05:09:23.989Z,62.04
2023-05-11T05:10:23.986Z,61.71
2023-05-11T05:11:23.987Z,58.97
2023-05-11T05:12:24.011Z,58.01
2023-05-11T05:13:23.946Z,65.42
2023-05-11T05:14:23.992Z,63.97
2023-05-11T05:15:23.969Z,61.71
2023-05-11T05:16:23.955Z,72.19
2023-05-11T05:17:23.981Z,67.68
2023-05-11T05:18:23.974Z,61.07
2023-05-11T05:19:23.953Z,65.58
2023-05-11T05:20:23.909Z,66.06
2023-05-11T05:21:23.943Z,63.16
2023-05-11T05:22:23.906Z,64.61
2023-05-11T05:23:23.935Z,62.68
2023-05-11T05:24:23.876Z,61.87
2023-05-11T05:25:23.890Z,62.20
2023-05-11T05:26:23.885Z,65.58
2023-05-11T05:27:23.908Z,64.78
2023-05-11T05:28:23.964Z,62.04
2023-05-11T05:29:23.862Z,69.13
2023-05-11T05:30:23.885Z,69.77
2023-05-11T05:31:23.955Z,68.00
2023-05-11T05:32:23.901Z,66.23
2023-05-11T05:33:23.878Z,69.77
2023-05-11T05:34:23.879Z,62.20
2023-05-11T05:35:23.825Z,70.74
2023-05-11T05:36:23.844Z,70.25
2023-05-11T05:37:23.830Z,72.03
2023-05-11T05:38:23.828Z,69.45
2023-05-11T05:39:23.812Z,69.29
2023-05-11T05:40:23.806Z,69.93
2023-05-11T05:41:23.795Z,69.93
2023-05-11T05:42:23.804Z,72.51
2023-05-11T05:43:23.788Z,66.23
2023-05-11T05:44:23.900Z,65.90
2023-05-11T05:45:23.767Z,65.26
2023-05-11T05:46:23.848Z,64.61
2023-05-11T05:47:23.791Z,71.54
2023-05-11T05:48:23.783Z,73.32
2023-05-11T05:49:23.769Z,65.10
2023-05-11T05:50:23.773Z,66.23
2023-05-11T05:51:23.758Z,69.13
2023-05-11T05:52:23.771Z,67.68
2023-05-11T05:53:23.745Z,64.61
2023-05-11T05:54:23.767Z,68.16
2023-05-11T05:55:23.730Z,67.19
2023-05-11T05:56:23.712Z,67.19
2023-05-11T05:57:23.708Z,65.58
2023-05-11T05:58:23.685Z,68.00
2023-05-11T05:59:24.291Z,69.77
2023-05-11T06:00:23.722Z,67.19
2023-05-11T06:01:23.701Z,64.29
2023-05-11T06:02:23.737Z,70.25
2023-05-11T06:03:24.000Z,68.64
2023-05-11T06:04:23.730Z,65.42
2023-05-11T06:05:23.677Z,70.25
2023-05-11T06:06:23.657Z,69.93
2023-05-11T06:07:23.643Z,66.87
2023-05-11T06:08:23.744Z,72.19
2023-05-11T06:09:23.637Z,69.45
2023-05-11T06:10:23.675Z,70.42
2023-05-11T06:11:23.704Z,72.19
2023-05-11T06:12:23.652Z,73.15
2023-05-11T06:13:23.627Z,72.83
2023-05-11T06:14:23.627Z,72.03
2023-05-11T06:15:23.588Z,68.80
2023-05-11T06:16:23.652Z,68.80
2023-05-11T06:17:23.650Z,61.23
2023-05-11T06:18:23.663Z,71.38
2023-05-11T06:19:23.591Z,70.09
2023-05-11T06:20:23.675Z,73.80
2023-05-11T06:21:23.566Z,70.58
2023-05-11T06:22:23.573Z,68.80
2023-05-11T06:23:23.542Z,73.32
2023-05-11T06:24:23.578Z,75.73
2023-05-11T06:25:23.573Z,74.12
2023-05-11T06:26:23.524Z,69.93
2023-05-11T06:27:23.594Z,75.25
2023-05-11T06:28:23.566Z,73.32
2023-05-11T06:29:23.518Z,69.77
2023-05-11T06:30:23.551Z,73.32
2023-05-11T06:31:23.527Z,71.22
2023-05-11T06:32:23.539Z,72.83
2023-05-11T06:33:23.534Z,69.13
2023-05-11T06:34:23.511Z,58.65
2023-05-11T06:35:23.495Z,68.48
2023-05-11T06:36:23.486Z,71.22
2023-05-11T06:37:23.494Z,69.93
2023-05-11T06:38:23.515Z,69.45
2023-05-11T06:39:23.524Z,73.80
2023-05-11T06:40:23.490Z,70.25
2023-05-11T06:41:23.451Z,66.06
2023-05-11T06:42:23.466Z,68.32
2023-05-11T06:43:23.427Z,70.74
2023-05-11T06:44:23.450Z,67.03
2023-05-11T06:45:23.464Z,70.42
2023-05-11T06:46:23.461Z,67.51
2023-05-11T06:47:23.503Z,72.51
2023-05-11T06:48:59.041Z,67.84
2023-05-11T06:49:56.877Z,73.15
2023-05-11T06:50:56.860Z,71.06
2023-05-11T06:51:56.828Z,77.18
2023-05-11T06:52:55.834Z,68.00
2023-05-11T06:53:57.890Z,73.64
2023-05-11T06:54:57.002Z,66.23
2023-05-11T06:55:56.805Z,70.74
2023-05-11T06:56:23.388Z,70.58
2023-05-11T06:57:56.806Z,71.38
2023-05-11T06:58:55.771Z,70.42
2023-05-11T06:59:23.373Z,74.60
2023-05-11T07:00:23.384Z,63.81
2023-05-11T07:01:23.362Z,62.84
2023-05-11T07:02:23.352Z,61.55
2023-05-11T07:03:23.359Z,67.68
2023-05-11T07:04:23.364Z,61.71
2023-05-11T07:05:23.315Z,73.48
2023-05-11T07:06:23.315Z,72.83
2023-05-11T07:07:23.288Z,68.16
2023-05-11T07:08:23.270Z,76.22
2023-05-11T07:09:23.311Z,66.23
2023-05-11T07:10:24.257Z,64.78
2023-05-11T07:11:23.301Z,69.13
2023-05-11T07:12:23.242Z,70.90
2023-05-11T07:13:23.301Z,74.44
2023-05-11T07:14:23.271Z,58.17
2023-05-11T07:15:23.279Z,68.48
2023-05-11T07:16:23.292Z,66.87
2023-05-11T07:17:23.262Z,73.80
2023-05-11T07:18:23.308Z,68.48
2023-05-11T07:19:23.256Z,66.06
2023-05-11T07:20:24.218Z,61.71
2023-05-11T07:21:23.276Z,73.64
2023-05-11T07:22:23.276Z,74.60
2023-05-11T07:23:23.207Z,72.83
2023-05-11T07:24:24.191Z,72.51
2023-05-11T07:25:23.177Z,70.90
2023-05-11T07:26:23.302Z,73.80
2023-05-11T07:27:23.172Z,63.49
2023-05-11T07:28:23.184Z,72.83
2023-05-11T07:29:23.164Z,68.48
2023-05-11T07:30:23.435Z,71.54
2023-05-11T07:31:23.220Z,70.09
2023-05-11T07:32:23.178Z,72.99
2023-05-11T07:33:23.131Z,72.03
2023-05-11T07:34:23.157Z,65.74
2023-05-11T07:35:24.128Z,71.70
2023-05-11T07:36:23.102Z,75.25
2023-05-11T07:37:23.136Z,70.25
2023-05-11T07:38:23.129Z,73.32
2023-05-11T07:39:23.104Z,73.32
2023-05-11T07:40:23.071Z,73.48
2023-05-11T07:41:23.106Z,69.45
2023-05-11T07:42:23.075Z,65.58
2023-05-11T07:43:23.144Z,67.19
2023-05-11T07:44:23.052Z,72.35
2023-05-11T07:45:23.069Z,65.90
2023-05-11T07:46:23.177Z,69.93
2023-05-11T07:47:23.060Z,74.44
2023-05-11T07:48:23.049Z,74.44
2023-05-11T07:49:35.235Z,74.44
2023-05-11T07:50:25.215Z,72.51
2023-05-11T07:51:24.047Z,72.83
2023-05-11T07:52:23.021Z,66.39
2023-05-11T07:53:23.017Z,72.03
2023-05-11T07:54:23.016Z,71.22
2023-05-11T07:55:23.030Z,67.35
2023-05-11T07:56:22.989Z,67.03
2023-05-11T07:57:23.003Z,72.99
2023-05-11T07:58:23.025Z,71.70
2023-05-11T07:59:22.998Z,71.06
2023-05-11T08:00:23.043Z,70.25
2023-05-11T08:01:22.961Z,71.06
2023-05-11T08:02:22.972Z,70.90
2023-05-11T08:03:23.615Z,66.39
2023-05-11T08:04:23.047Z,73.80
2023-05-11T08:05:23.056Z,69.93
2023-05-11T08:06:23.330Z,65.90
2023-05-11T08:07:22.968Z,66.39
2023-05-11T08:08:22.990Z,69.45
2023-05-11T08:09:22.943Z,63.81
2023-05-11T08:10:22.914Z,58.33
2023-05-11T08:11:22.932Z,69.13
2023-05-11T08:12:22.941Z,68.32
2023-05-11T08:13:23.117Z,66.23
2023-05-11T08:14:22.945Z,69.29
2023-05-11T08:15:22.923Z,67.03
2023-05-11T08:16:22.931Z,64.78
2023-05-11T08:17:22.933Z,66.06
2023-05-11T08:18:22.863Z,67.51
2023-05-11T08:19:22.948Z,69.61
2023-05-11T08:20:22.835Z,71.54
2023-05-11T08:21:22.835Z,68.48
2023-05-11T08:22:22.826Z,66.87
2023-05-11T08:23:22.862Z,72.67
2023-05-11T08:24:22.871Z,74.12
2023-05-11T08:25:22.791Z,72.99
2023-05-11T08:26:22.804Z,64.13
2023-05-11T08:27:23.768Z,64.94
2023-05-11T08:28:22.793Z,72.99
2023-05-11T08:29:22.748Z,70.90
2023-05-11T08:30:22.834Z,71.70
2023-05-11T08:31:22.849Z,56.88
2023-05-11T08:32:22.791Z,68.16
2023-05-11T08:33:36.712Z,73.48
2023-05-11T08:34:24.950Z,75.09
2023-05-11T08:35:22.905Z,72.03
2023-05-11T08:36:22.714Z,74.60
2023-05-11T08:37:22.750Z,68.48
2023-05-11T08:38:22.703Z,68.48
2023-05-11T08:39:38.884Z,72.51
2023-05-11T08:40:24.765Z,74.77
2023-05-11T08:41:22.712Z,75.09
2023-05-11T08:42:22.696Z,72.19
2023-05-11T08:43:22.686Z,74.77
2023-05-11T08:44:22.726Z,66.55
2023-05-11T08:45:22.712Z,72.99
2023-05-11T08:46:22.722Z,75.73
2023-05-11T08:47:23.914Z,72.67
2023-05-11T08:48:22.660Z,71.87
2023-05-11T08:49:23.502Z,61.23
2023-05-11T08:50:22.688Z,71.22
2023-05-11T08:51:22.623Z,74.12
2023-05-11T08:52:22.634Z,66.55
2023-05-11T08:53:22.664Z,62.68
2023-05-11T08:54:22.597Z,66.06
2023-05-11T08:55:22.646Z,71.54
2023-05-11T08:56:22.646Z,69.93
2023-05-11T08:57:22.612Z,67.19
2023-05-11T08:58:22.654Z,70.58
2023-05-11T08:59:22.600Z,73.15
2023-05-11T09:00:22.650Z,74.12
2023-05-11T09:01:22.586Z,72.51
2023-05-11T09:02:22.583Z,75.41
2023-05-11T09:03:22.686Z,58.81
2023-05-11T09:04:22.621Z,71.06
2023-05-11T09:05:22.739Z,68.80
2023-05-11T09:06:22.603Z,73.80
2023-05-11T09:07:22.539Z,70.42
2023-05-11T09:08:22.651Z,68.64
2023-05-11T09:09:22.500Z,65.42
2023-05-11T09:10:22.531Z,73.48
2023-05-11T09:11:22.488Z,64.78
2023-05-11T09:12:22.586Z,67.35
2023-05-11T09:13:22.477Z,74.12
2023-05-11T09:14:27.035Z,71.22
2023-05-11T09:15:24.494Z,74.12
2023-05-11T09:16:36.338Z,72.35
2023-05-11T09:17:24.477Z,72.35
2023-05-11T09:18:22.495Z,69.13
2023-05-11T09:19:22.426Z,74.12
2023-05-11T09:20:22.470Z,70.90
2023-05-11T09:21:22.425Z,63.33
2023-05-11T09:22:22.443Z,63.97
2023-05-11T09:23:22.466Z,75.73
2023-05-11T09:24:22.408Z,71.54
2023-05-11T09:25:22.412Z,73.15
2023-05-11T09:26:22.408Z,74.12
2023-05-11T09:27:22.959Z,73.96
2023-05-11T09:29:23.653Z,73.80
2023-05-11T09:30:23.144Z,65.90
2023-05-11T09:31:23.436Z,73.64
2023-05-11T09:32:22.457Z,72.83
2023-05-11T09:33:23.074Z,75.09
2023-05-11T09:34:22.346Z,73.32
2023-05-11T09:35:22.532Z,69.45
2023-05-11T09:36:22.650Z,70.74
2023-05-11T09:37:22.349Z,69.45
2023-05-11T09:38:22.336Z,66.39
2023-05-11T09:39:35.161Z,71.54
2023-05-11T09:40:26.977Z,74.28
2023-05-11T09:41:23.422Z,62.68
2023-05-11T09:42:22.360Z,70.42
2023-05-11T09:43:22.324Z,68.48
2023-05-11T09:44:22.323Z,71.22
2023-05-11T09:45:22.262Z,75.25
2023-05-11T09:46:22.344Z,71.22
2023-05-11T09:47:22.344Z,69.61
2023-05-11T09:48:22.339Z,76.38
2023-05-11T09:49:22.249Z,70.42
2023-05-11T09:50:26.418Z,73.96
2023-05-11T09:51:23.221Z,72.35
2023-05-11T09:52:22.230Z,72.83
2023-05-11T09:53:22.236Z,64.13
2023-05-11T09:54:22.195Z,71.06
2023-05-11T09:55:22.233Z,76.22
2023-05-11T09:56:22.177Z,72.51
2023-05-11T09:57:22.162Z,72.03
2023-05-11T09:58:22.255Z,60.59
2023-05-11T09:59:22.196Z,71.06
2023-05-11T10:00:22.172Z,68.80
2023-05-11T10:01:22.197Z,72.99
2023-05-11T10:02:22.206Z,74.93
2023-05-11T10:03:23.179Z,73.32
2023-05-11T10:04:23.956Z,72.51
2023-05-11T10:05:23.188Z,68.96
2023-05-11T10:06:22.116Z,71.38
2023-05-11T10:07:22.176Z,58.33
2023-05-11T10:08:22.112Z,71.06
2023-05-11T10:09:22.095Z,66.71
2023-05-11T10:10:22.108Z,70.90
2023-05-11T10:11:23.188Z,64.29
2023-05-11T10:12:22.078Z,69.93
2023-05-11T10:13:22.129Z,72.19
2023-05-11T10:14:22.116Z,75.41
2023-05-11T10:15:22.087Z,72.19
2023-05-11T10:16:22.304Z,71.06
2023-05-11T10:17:22.049Z,74.44
2023-05-11T10:18:22.113Z,67.03
2023-05-11T10:19:22.093Z,69.45
2023-05-11T10:20:22.209Z,73.64
2023-05-11T10:21:22.046Z,68.48
2023-05-11T10:22:22.072Z,69.13
2023-05-11T10:23:22.019Z,67.84
2023-05-11T10:24:22.104Z,69.13
2023-05-11T10:25:22.114Z,69.93
2023-05-11T10:26:22.016Z,68.96
2023-05-11T10:27:22.162Z,70.90
2023-05-11T10:28:22.218Z,71.38
2023-05-11T10:29:21.974Z,69.77
2023-05-11T10:30:22.182Z,70.74
2023-05-11T10:31:22.004Z,71.54
2023-05-11T10:32:22.020Z,66.23
2023-05-11T10:33:21.962Z,72.51
2023-05-11T10:34:21.977Z,70.74
2023-05-11T10:35:22.532Z,68.80
2023-05-11T10:36:22.487Z,68.32
2023-05-11T10:37:22.059Z,70.58
2023-05-11T10:38:22.495Z,73.48
2023-05-11T10:39:22.011Z,70.42
2023-05-11T10:40:21.939Z,68.32
2023-05-11T10:41:21.929Z,63.49
2023-05-11T10:42:21.991Z,72.03
2023-05-11T10:43:21.915Z,63.97
2023-05-11T10:44:21.946Z,54.79
2023-05-11T10:45:21.917Z,68.48
2023-05-11T10:46:21.987Z,72.35
2023-05-11T10:47:21.967Z,67.84
2023-05-11T10:48:21.841Z,71.22
2023-05-11T10:49:22.943Z,70.74
2023-05-11T10:50:21.913Z,67.03
2023-05-11T10:51:21.873Z,64.13
2023-05-11T10:52:21.901Z,70.09
2023-05-11T10:53:21.830Z,68.00
2023-05-11T10:54:21.857Z,61.23
2023-05-11T10:55:21.844Z,61.07
2023-05-11T10:56:21.793Z,72.99
2023-05-11T10:57:21.820Z,70.09
2023-05-11T10:58:21.841Z,66.39
2023-05-11T10:59:21.829Z,71.70
2023-05-11T11:00:21.930Z,69.93
2023-05-11T11:01:21.852Z,68.96
2023-05-11T11:02:21.846Z,65.74
2023-05-11T11:03:21.874Z,66.55
2023-05-11T11:04:21.768Z,64.45
2023-05-11T11:05:22.034Z,69.45
2023-05-11T11:06:21.805Z,66.23
2023-05-11T11:07:21.770Z,72.83
2023-05-11T11:08:21.822Z,70.25
2023-05-11T11:09:21.780Z,71.06
2023-05-11T11:10:21.774Z,74.12
2023-05-11T11:11:22.599Z,72.35
2023-05-11T11:12:21.730Z,64.61
2023-05-11T11:13:21.763Z,61.71
2023-05-11T11:14:21.696Z,69.45
2023-05-11T11:15:21.794Z,73.80
2023-05-11T11:16:21.680Z,68.96
2023-05-11T11:17:21.770Z,71.38
2023-05-11T11:18:21.859Z,70.74
2023-05-11T11:19:21.758Z,69.13
2023-05-11T11:20:21.806Z,68.48
2023-05-11T11:21:22.324Z,66.87
2023-05-11T11:22:21.993Z,74.12
2023-05-11T11:23:21.787Z,71.06
2023-05-11T11:24:21.710Z,71.54
2023-05-11T11:25:25.158Z,70.58
2023-05-11T11:26:21.780Z,73.15
2023-05-11T11:27:21.820Z,72.03
2023-05-11T11:28:22.215Z,67.68
2023-05-11T11:29:25.693Z,70.58
2023-05-11T11:30:29.795Z,72.19
2023-05-11T11:31:23.660Z,70.74
2023-05-11T11:32:23.662Z,70.90
2023-05-11T11:33:22.700Z,72.99
2023-05-11T11:34:22.081Z,72.35
2023-05-11T11:35:21.826Z,72.99
2023-05-11T11:36:21.731Z,66.23
2023-05-11T11:37:21.656Z,63.16
2023-05-11T11:38:21.630Z,68.32
2023-05-11T11:39:21.682Z,74.12
2023-05-11T11:40:21.605Z,68.00
2023-05-11T11:41:21.620Z,70.58
2023-05-11T11:42:21.558Z,72.51
2023-05-11T11:43:21.628Z,70.74
2023-05-11T11:44:21.633Z,71.70
2023-05-11T11:45:22.559Z,73.48
2023-05-11T11:46:21.635Z,73.32
2023-05-11T11:47:21.575Z,69.61
2023-05-11T11:48:21.507Z,70.58
2023-05-11T11:49:21.566Z,72.35
2023-05-11T11:50:21.528Z,74.44
2023-05-11T11:51:21.523Z,71.70
2023-05-11T11:52:21.505Z,74.12
2023-05-11T11:53:21.507Z,75.09
2023-05-11T11:54:21.516Z,74.12
2023-05-11T11:55:21.527Z,74.93
2023-05-11T11:56:21.520Z,73.32
2023-05-11T11:57:21.482Z,72.51
2023-05-11T11:58:21.483Z,74.12
2023-05-11T11:59:21.509Z,72.03
2023-05-11T12:00:21.443Z,70.58
2023-05-11T12:01:21.448Z,71.06
2023-05-11T12:02:21.457Z,73.15
2023-05-11T12:03:21.572Z,73.80
2023-05-11T12:04:24.199Z,71.54
2023-05-11T12:05:21.846Z,73.48
2023-05-11T12:06:21.418Z,71.54
2023-05-11T12:07:25.263Z,72.51
2023-05-11T12:08:21.388Z,73.48
2023-05-11T12:09:21.472Z,73.32
2023-05-11T12:10:21.413Z,72.19
2023-05-11T12:11:21.371Z,73.32
2023-05-11T12:12:21.388Z,75.57
2023-05-11T12:13:21.402Z,72.03
2023-05-11T12:14:21.400Z,70.42
2023-05-11T12:15:21.426Z,70.42
2023-05-11T12:16:21.440Z,67.84
2023-05-11T12:17:21.467Z,67.19
2023-05-11T12:18:21.441Z,75.25
2023-05-11T12:19:21.528Z,72.67
2023-05-11T12:20:21.562Z,75.57
2023-05-11T12:21:21.488Z,75.09
2023-05-11T12:22:21.409Z,72.83
2023-05-11T12:23:21.293Z,74.60
2023-05-11T12:24:21.365Z,69.61
2023-05-11T12:25:21.414Z,73.48
2023-05-11T12:26:21.296Z,73.80
2023-05-11T12:27:21.312Z,74.60
2023-05-11T12:28:21.528Z,70.90
2023-05-11T12:29:21.282Z,74.44
2023-05-11T12:30:21.278Z,74.12
2023-05-11T12:31:21.368Z,74.28
2023-05-11T12:32:21.221Z,73.64
2023-05-11T12:33:21.431Z,72.19
2023-05-11T12:34:21.274Z,74.93
2023-05-11T12:35:21.250Z,70.25
2023-05-11T12:36:21.253Z,76.70
2023-05-11T12:37:21.210Z,74.60
2023-05-11T12:38:21.192Z,76.54
2023-05-11T12:39:21.210Z,73.15
2023-05-11T12:40:21.206Z,75.41
2023-05-11T12:41:22.169Z,70.25
2023-05-11T12:42:21.234Z,71.06
2023-05-11T12:43:21.187Z,76.54
2023-05-11T12:44:21.204Z,75.57
2023-05-11T12:45:21.161Z,74.60
2023-05-11T12:46:21.189Z,73.96
2023-05-11T12:47:21.201Z,74.60
2023-05-11T12:48:21.122Z,73.64
2023-05-11T12:49:25.376Z,75.41
2023-05-11T12:50:23.234Z,65.42
2023-05-11T12:51:21.182Z,66.71
2023-05-11T12:52:21.179Z,75.25
2023-05-11T12:53:21.155Z,75.25
2023-05-11T12:54:21.083Z,74.93
2023-05-11T12:55:21.095Z,72.99
2023-05-11T12:56:21.074Z,75.41